Time;durP1;ratioP1;P1;durP2;ratioP2;P2;SDS_P1;SDS_P2;PMS_P1;PMS_P2;Temp;Humidity;BMP_temperature;BMP_pressure;BME280_temperature;BME280_humidity;BME280_pressure;Samples;Min_cycle;Max_cycle;Signal;HPM_P1;HPM_P2
2022/11/24 00:01:33;;;;;;;16.70;5.55;;;;;;;9.53;65.33;93574.38;4175795;28;20427;-52
2022/11/24 00:03:35;;;;;;;9.00;5.80;;;;;;;9.51;65.01;93583.41;4166371;28;20047;-51
2022/11/24 00:05:37;;;;;;;10.85;5.07;;;;;;;9.46;65.68;93577.88;4166510;28;20049;-55
2022/11/24 00:07:39;;;;;;;13.02;5.78;;;;;;;9.43;65.29;93576.44;4146037;28;20192;-55
2022/11/24 00:09:41;;;;;;;7.65;4.82;;;;;;;9.43;65.72;93582.47;4170950;28;20490;-54
2022/11/24 00:11:42;;;;;;;8.50;5.20;;;;;;;9.35;65.82;93582.56;4162159;28;20121;-49
2022/11/24 00:13:45;;;;;;;9.05;5.30;;;;;;;9.28;65.98;93584.28;4178449;28;20113;-55
2022/11/24 00:15:46;;;;;;;10.35;5.90;;;;;;;9.32;65.85;93579.50;4179816;28;20084;-52
2022/11/24 00:17:48;;;;;;;8.52;5.53;;;;;;;9.26;65.41;93581.03;4178696;28;20127;-52
2022/11/24 00:19:50;;;;;;;9.35;5.65;;;;;;;9.27;66.36;93580.03;4164181;28;20055;-51
2022/11/24 00:21:51;;;;;;;9.93;5.65;;;;;;;9.28;65.65;93575.63;4163664;28;20077;-51
2022/11/24 00:23:53;;;;;;;12.27;5.70;;;;;;;9.34;65.27;93577.53;4158732;28;20119;-55
2022/11/24 00:26:02;;;;;;;10.02;5.65;;;;;;;9.33;65.71;93576.69;4173484;28;20057;-53
2022/11/24 00:28:03;;;;;;;7.38;4.85;;;;;;;9.30;65.68;93584.09;4171257;28;20099;-50
2022/11/24 00:30:06;;;;;;;9.60;5.55;;;;;;;9.26;66.05;93583.63;4176582;28;20516;-52
2022/11/24 00:32:07;;;;;;;7.60;5.47;;;;;;;9.23;65.75;93597.88;4173673;28;20054;-51
2022/11/24 00:34:11;;;;;;;10.80;5.50;;;;;;;9.20;66.44;93594.78;4153366;28;20062;-52
2022/11/24 00:36:13;;;;;;;;;;;;;;;9.25;66.46;93594.25;4164852;28;20120;-51
2022/11/24 00:38:14;;;;;;;9.70;5.53;;;;;;;9.04;66.05;93587.13;4151649;28;19968;-53
2022/11/24 00:40:16;;;;;;;10.82;5.93;;;;;;;8.85;67.05;93588.41;4160020;28;20473;-53
2022/11/24 00:42:18;;;;;;;9.60;6.13;;;;;;;8.88;67.43;93588.06;4156597;28;20073;-56
2022/11/24 00:44:19;;;;;;;9.13;5.80;;;;;;;8.92;66.68;93591.94;4153668;28;20088;-55
2022/11/24 00:46:22;;;;;;;16.05;6.78;;;;;;;8.97;66.99;93603.50;4172706;28;20136;-53
2022/11/24 00:48:24;;;;;;;11.07;6.22;;;;;;;9.01;66.18;93598.72;4177896;28;20093;-56
2022/11/24 00:50:25;;;;;;;9.35;5.93;;;;;;;9.05;66.10;93599.97;4161068;28;20105;-53
2022/11/24 00:52:27;;;;;;;9.82;5.40;;;;;;;9.07;66.11;93612.88;4163168;28;20128;-50
2022/11/24 00:54:29;;;;;;;12.38;6.40;;;;;;;9.11;66.16;93608.94;4164548;28;20077;-53
2022/11/24 00:56:32;;;;;;;8.88;6.10;;;;;;;9.12;66.31;93610.53;4162646;28;20273;-53
2022/11/24 00:58:34;;;;;;;11.65;6.60;;;;;;;8.98;65.78;93599.88;4151409;28;20053;-53
2022/11/24 01:00:35;;;;;;;10.23;6.43;;;;;;;8.89;66.80;93605.38;4161047;28;20054;-53
2022/11/24 01:02:37;;;;;;;10.13;6.57;;;;;;;8.90;66.68;93599.94;4162629;28;20084;-53
2022/11/24 01:04:39;;;;;;;9.52;6.70;;;;;;;8.81;66.66;93603.63;4156141;28;20102;-54
2022/11/24 01:06:40;;;;;;;11.23;6.75;;;;;;;8.79;66.80;93601.16;4152162;28;20083;-55
2022/11/24 01:08:43;;;;;;;11.45;6.32;;;;;;;8.85;67.31;93604.09;4162777;28;20488;-53
2022/11/24 01:10:45;;;;;;;12.32;6.72;;;;;;;8.87;66.76;93608.13;4150534;28;20049;-54
2022/11/24 01:12:46;;;;;;;10.07;5.88;;;;;;;8.82;67.24;93589.59;4159275;28;20053;-51
2022/11/24 01:14:48;;;;;;;11.02;6.25;;;;;;;8.77;67.64;93597.13;4145238;28;20085;-52
2022/11/24 01:16:50;;;;;;;9.98;6.32;;;;;;;8.74;67.12;93603.50;4171142;28;20052;-53
2022/11/24 01:18:51;;;;;;;9.82;5.53;;;;;;;8.74;67.60;93595.66;4153106;28;20124;-54
2022/11/24 01:20:53;;;;;;;11.20;6.18;;;;;;;8.70;67.72;93585.75;4153007;28;20478;-55
2022/11/24 01:22:55;;;;;;;9.57;5.55;;;;;;;8.61;67.77;93593.63;4165072;28;20056;-53
2022/11/24 01:24:56;;;;;;;9.70;4.95;;;;;;;8.59;67.68;93611.28;4156791;28;20189;-53
2022/11/24 01:26:58;;;;;;;10.00;5.40;;;;;;;8.61;67.62;93605.88;4161411;28;20057;-52
2022/11/24 01:28:59;;;;;;;10.25;4.90;;;;;;;8.55;67.39;93604.78;4155171;28;20504;-56
2022/11/24 01:31:04;;;;;;;12.30;4.65;;;;;;;8.55;67.83;93614.41;4156229;28;20063;-55
2022/11/24 01:33:05;;;;;;;7.38;5.10;;;;;;;8.59;68.29;93611.28;4162272;28;20053;-55
2022/11/24 01:35:08;;;;;;;8.70;5.18;;;;;;;8.67;67.75;93610.41;4158777;28;20378;-49
2022/11/24 01:37:09;;;;;;;7.13;5.07;;;;;;;8.65;68.26;93608.94;4160953;28;20458;-50
2022/11/24 01:39:12;;;;;;;7.65;5.15;;;;;;;8.71;68.67;93608.25;4173924;28;20057;-51
2022/11/24 01:41:16;;;;;;;9.38;5.35;;;;;;;8.79;67.71;93603.78;4170609;28;20160;-56
2022/11/24 01:43:20;;;;;;;9.45;5.07;;;;;;;8.89;67.46;93608.78;4171797;28;20055;-54
2022/11/24 01:45:32;;;;;;;12.55;5.20;;;;;;;8.94;66.75;93614.28;4178455;28;20052;-51
2022/11/24 01:47:37;;;;;;;9.63;6.10;;;;;;;8.63;67.19;93609.13;4178568;28;20132;-52
2022/11/24 01:49:42;;;;;;;11.57;6.68;;;;;;;8.42;68.78;93608.94;4177269;28;20106;-52
2022/11/24 01:51:54;;;;;;;14.85;7.47;;;;;;;8.33;68.34;93606.34;4174622;28;20146;-51
2022/11/24 01:53:59;;;;;;;14.80;7.93;;;;;;;8.32;69.41;93606.50;4157862;28;20059;-52
2022/11/24 01:56:01;;;;;;;13.10;6.80;;;;;;;8.43;69.90;93600.94;4172165;28;20084;-53
2022/11/24 01:58:13;;;;;;;12.23;6.55;;;;;;;8.52;69.35;93597.31;4176761;28;20067;-53
2022/11/24 02:00:15;;;;;;;11.43;5.78;;;;;;;8.57;69.01;93605.41;4168842;28;20052;-53
2022/11/24 02:02:18;;;;;;;17.95;6.50;;;;;;;8.66;68.84;93603.56;4178363;28;20045;-52
2022/11/24 02:04:24;;;;;;;11.55;5.88;;;;;;;8.74;68.83;93602.69;4177410;28;20451;-53
2022/11/24 02:06:28;;;;;;;13.50;6.18;;;;;;;8.84;68.48;93603.28;4151544;28;20488;-54
2022/11/24 02:08:49;;;;;;;12.00;5.68;;;;;;;8.95;67.52;93600.25;4176616;28;20053;-53
2022/11/24 02:10:50;;;;;;;10.27;6.30;;;;;;;9.04;67.81;93602.78;4164857;28;20346;-51
2022/11/24 02:12:54;;;;;;;14.02;6.40;;;;;;;9.08;67.48;93604.88;4152580;28;20578;-51
2022/11/24 02:14:56;;;;;;;15.93;6.50;;;;;;;9.08;67.38;93604.03;4168561;28;20081;-51
2022/11/24 02:16:58;;;;;;;12.15;6.55;;;;;;;9.09;67.56;93603.88;4151347;28;20556;-55
2022/11/24 02:19:01;;;;;;;11.57;6.25;;;;;;;9.11;67.61;93607.13;4145635;28;20061;-54
2022/11/24 02:21:03;;;;;;;8.68;6.30;;;;;;;9.08;67.10;93610.09;4149285;28;20088;-54
2022/11/24 02:23:11;;;;;;;9.13;5.95;;;;;;;9.00;67.39;93618.81;4151954;28;20084;-55
2022/11/24 02:25:26;;;;;;;10.52;6.57;;;;;;;8.97;67.45;93619.16;4162167;28;20140;-57
2022/11/24 02:27:27;;;;;;;10.73;5.97;;;;;;;8.95;67.72;93620.34;4144246;28;20061;-55
2022/11/24 02:29:29;;;;;;;9.40;5.82;;;;;;;8.94;67.35;93616.88;4164202;28;20106;-52
2022/11/24 02:31:50;;;;;;;12.23;6.57;;;;;;;8.98;68.03;93612.94;4148175;28;20088;-52
2022/11/24 02:33:51;;;;;;;9.80;6.15;;;;;;;9.02;67.24;93622.06;4148645;28;20370;-53
2022/11/24 02:35:53;;;;;;;10.02;5.75;;;;;;;9.07;67.40;93618.91;4149396;28;20149;-53
2022/11/24 02:37:55;;;;;;;13.68;5.80;;;;;;;9.01;67.32;93622.22;4154006;28;20080;-50
2022/11/24 02:39:56;;;;;;;11.18;5.75;;;;;;;8.75;66.80;93620.78;4176977;28;20155;-50
2022/11/24 02:42:02;;;;;;;12.10;6.40;;;;;;;8.52;68.29;93620.78;4151706;28;20120;-50
2022/11/24 02:44:04;;;;;;;11.93;6.30;;;;;;;8.50;68.61;93624.56;4153137;28;20045;-51
2022/11/24 02:46:07;;;;;;;10.75;5.82;;;;;;;8.55;68.48;93625.66;4160518;28;20045;-51
2022/11/24 02:48:08;;;;;;;12.57;6.15;;;;;;;8.26;69.04;93623.69;4159356;28;20553;-52
2022/11/24 02:50:10;;;;;;;13.65;7.25;;;;;;;7.92;70.04;93629.22;4154866;28;20053;-53
2022/11/24 02:52:12;;;;;;;12.52;8.40;;;;;;;7.90;70.50;93629.38;4154241;28;20087;-52
2022/11/24 02:54:13;;;;;;;13.70;8.27;;;;;;;7.99;70.15;93624.94;4173591;28;20148;-49
2022/11/24 02:56:15;;;;;;;15.30;8.38;;;;;;;8.09;70.64;93622.16;4175993;28;20068;-49
2022/11/24 02:58:17;;;;;;;15.00;7.68;;;;;;;8.19;70.61;93617.50;4168877;28;20107;-49
2022/11/24 03:00:18;;;;;;;12.75;7.63;;;;;;;8.31;69.88;93615.34;4161285;28;20539;-51
2022/11/24 03:02:20;;;;;;;13.73;7.95;;;;;;;8.38;69.97;93619.69;4171043;28;20060;-51
2022/11/24 03:04:21;;;;;;;16.55;7.75;;;;;;;8.40;69.77;93624.75;4176662;28;20053;-51
2022/11/24 03:06:23;;;;;;;14.43;8.35;;;;;;;8.38;69.77;93624.91;4170088;28;20053;-51
2022/11/24 03:08:25;;;;;;;13.88;8.38;;;;;;;8.45;69.65;93629.47;4158629;28;20208;-52
2022/11/24 03:10:27;;;;;;;13.57;8.63;;;;;;;8.51;69.48;93626.97;4166384;28;20145;-52
2022/11/24 03:12:28;;;;;;;12.68;8.63;;;;;;;8.59;69.02;93629.53;4173656;28;20487;-52
2022/11/24 03:14:30;;;;;;;12.73;8.93;;;;;;;8.70;69.19;93630.13;4175456;28;20045;-51
2022/11/24 03:16:32;;;;;;;13.00;7.97;;;;;;;8.77;68.75;93623.22;4176622;28;20045;-57
2022/11/24 03:18:34;;;;;;;16.70;8.75;;;;;;;8.82;68.05;93626.16;4158286;28;20511;-54
2022/11/24 03:20:36;;;;;;;11.00;7.82;;;;;;;8.88;68.42;93629.84;4144747;28;20088;-53
2022/11/24 03:22:37;;;;;;;12.95;8.00;;;;;;;8.95;68.24;93636.00;4153050;28;20128;-52
2022/11/24 03:24:39;;;;;;;13.60;8.98;;;;;;;8.94;67.61;93634.38;4159852;28;20053;-53
2022/11/24 03:26:41;;;;;;;13.57;9.15;;;;;;;8.53;68.35;93643.28;4148871;28;20057;-52
2022/11/24 03:28:43;;;;;;;18.95;10.55;;;;;;;7.79;70.91;93645.41;4163481;28;20148;-53
2022/11/24 03:30:47;;;;;;;19.23;11.77;;;;;;;7.21;73.98;93655.13;4169990;28;20219;-52
2022/11/24 03:32:52;;;;;;;22.00;12.75;;;;;;;7.12;74.61;93658.69;4149486;28;20068;-52
2022/11/24 03:34:54;;;;;;;21.38;15.50;;;;;;;7.00;74.71;93667.81;4174235;28;20076;-52
2022/11/24 03:36:55;;;;;;;25.30;15.85;;;;;;;7.07;74.56;93658.38;4176352;28;20139;-52
2022/11/24 03:38:57;;;;;;;22.55;16.27;;;;;;;7.11;74.41;93657.06;4166608;28;20087;-52
2022/11/24 03:40:58;;;;;;;27.35;17.42;;;;;;;7.28;74.21;93657.88;4162063;28;20053;-52
2022/11/24 03:43:00;;;;;;;23.80;16.95;;;;;;;7.49;73.86;93665.19;4153755;28;20132;-54
2022/11/24 03:45:02;;;;;;;28.40;18.30;;;;;;;7.70;73.47;93662.03;4146144;28;20050;-56
2022/11/24 03:47:24;;;;;;;26.63;17.38;;;;;;;7.93;71.58;93667.34;4159981;28;20556;-52
2022/11/24 03:49:25;;;;;;;27.55;18.92;;;;;;;8.08;71.45;93664.84;4150297;28;20304;-53
2022/11/24 03:51:27;;;;;;;32.50;20.35;;;;;;;8.19;70.91;93667.91;4159117;28;20055;-55
2022/11/24 03:53:30;;;;;;;31.70;18.08;;;;;;;8.32;70.87;93666.53;4161245;28;20128;-52
2022/11/24 03:55:31;;;;;;;24.85;16.73;;;;;;;8.42;70.50;93666.38;4155204;28;20383;-52
2022/11/24 03:57:33;;;;;;;27.63;16.63;;;;;;;8.50;70.46;93674.16;4162528;28;20076;-51
2022/11/24 03:59:35;;;;;;;26.20;17.60;;;;;;;8.60;69.83;93672.97;4158167;28;20052;-54
2022/11/24 04:01:36;;;;;;;27.30;17.67;;;;;;;8.65;68.98;93671.59;4155059;28;20054;-55
2022/11/24 04:03:38;;;;;;;25.25;16.55;;;;;;;8.67;68.92;93682.69;4156664;28;20486;-55
2022/11/24 04:05:40;;;;;;;27.30;16.67;;;;;;;8.36;69.02;93692.09;4161157;28;20169;-50
2022/11/24 04:07:41;;;;;;;21.15;15.57;;;;;;;8.20;69.80;93697.41;4158465;28;20108;-54
2022/11/24 04:09:44;;;;;;;27.13;16.60;;;;;;;8.18;70.44;93696.78;4159409;28;20056;-51
2022/11/24 04:14:05;;;;;;;24.45;15.00;;;;;;;8.21;70.38;93686.78;4161936;28;20429;-57
2022/11/24 04:16:13;;;;;;;25.02;15.02;;;;;;;8.30;70.59;93699.81;4155126;28;20112;-51
2022/11/24 04:18:15;;;;;;;23.42;14.52;;;;;;;8.42;70.61;93702.91;4165048;28;20053;-52
2022/11/24 04:20:17;;;;;;;25.00;15.30;;;;;;;8.50;70.15;93706.28;4168473;28;21160;-52
2022/11/24 04:22:19;;;;;;;28.25;14.55;;;;;;;8.58;70.06;93708.88;4162518;28;20056;-56
2022/11/24 04:24:20;;;;;;;19.92;13.07;;;;;;;8.66;69.21;93705.38;4148774;28;20067;-52
2022/11/24 04:26:22;;;;;;;27.77;15.52;;;;;;;8.68;68.92;93700.00;4165590;28;20136;-53
2022/11/24 04:28:24;;;;;;;21.50;14.98;;;;;;;8.68;69.84;93702.59;4161601;28;20096;-49
2022/11/24 04:30:28;;;;;;;22.98;15.00;;;;;;;8.69;69.21;93712.03;4176699;28;20077;-50
2022/11/24 04:32:29;;;;;;;25.83;15.48;;;;;;;8.72;69.09;93711.72;4176665;28;20068;-52
2022/11/24 04:34:31;;;;;;;25.88;14.73;;;;;;;8.72;69.23;93709.13;4176306;28;20160;-54
2022/11/24 04:36:33;;;;;;;23.27;15.57;;;;;;;8.75;69.06;93716.59;4173492;28;20527;-53
2022/11/24 04:38:35;;;;;;;23.45;15.00;;;;;;;8.80;69.19;93702.03;4165485;28;20129;-50
2022/11/24 04:41:02;;;;;;;20.10;14.23;;;;;;;8.78;68.96;93704.00;4162406;28;20053;-53
2022/11/24 04:43:03;;;;;;;21.27;12.88;;;;;;;8.79;69.00;93705.63;4155235;28;20327;-49
2022/11/24 04:45:05;;;;;;;23.83;14.13;;;;;;;8.78;68.54;93719.69;4149777;28;20136;-54
2022/11/24 04:47:14;;;;;;;20.23;13.38;;;;;;;8.80;68.99;93714.28;4169397;28;20584;-51
2022/11/24 04:49:16;;;;;;;18.00;12.77;;;;;;;8.80;68.85;93707.25;4160677;28;20111;-51
2022/11/24 04:51:17;;;;;;;19.83;13.18;;;;;;;8.82;68.91;93707.09;4171021;28;20041;-52
2022/11/24 04:53:19;;;;;;;20.98;13.25;;;;;;;8.88;68.71;93708.19;4168168;28;20084;-52
2022/11/24 04:55:21;;;;;;;20.20;13.07;;;;;;;8.91;68.02;93710.47;4177809;28;20497;-51
2022/11/24 04:57:25;;;;;;;21.95;12.30;;;;;;;8.92;68.31;93718.13;4178526;28;20132;-54
2022/11/24 04:59:26;;;;;;;21.67;12.70;;;;;;;8.94;68.72;93716.16;4172147;28;20052;-53
2022/11/24 05:01:28;;;;;;;22.05;12.38;;;;;;;8.97;68.51;93720.19;4170423;28;20430;-48
2022/11/24 05:03:29;;;;;;;17.30;12.00;;;;;;;9.01;68.11;93727.56;4177181;28;20051;-52
2022/11/24 05:05:31;;;;;;;17.85;11.50;;;;;;;9.01;67.68;93724.94;4175545;28;20163;-53
2022/11/24 05:07:33;;;;;;;17.17;11.10;;;;;;;9.06;67.87;93727.03;4177662;28;20129;-53
2022/11/24 05:10:33;;;;;;;16.30;11.13;;;;;;;9.10;67.82;93725.69;4177115;28;20123;-56
2022/11/24 05:12:00;;;;;;;14.75;9.15;;;;;;;9.15;67.56;93725.16;4155392;28;21075;-50
2022/11/24 05:14:01;;;;;;;15.63;9.85;;;;;;;9.16;67.26;93726.78;4176610;28;20080;-52
2022/11/24 05:16:04;;;;;;;14.75;10.57;;;;;;;9.20;67.12;93725.44;4178469;28;20106;-53
2022/11/24 05:18:07;;;;;;;18.52;10.95;;;;;;;9.15;67.85;93725.97;4177707;28;20045;-54
2022/11/24 05:20:09;;;;;;;18.55;11.73;;;;;;;9.13;67.56;93729.75;4178828;28;20057;-53
2022/11/24 05:22:11;;;;;;;18.98;10.63;;;;;;;9.10;67.48;93723.09;4171704;28;20227;-55
2022/11/24 05:24:13;;;;;;;19.60;11.23;;;;;;;9.10;67.75;93727.47;4173195;28;20045;-56
2022/11/24 05:26:14;;;;;;;22.98;12.18;;;;;;;8.92;68.13;93730.38;4176923;28;20696;-54
2022/11/24 05:28:16;;;;;;;25.13;13.18;;;;;;;8.60;69.72;93738.22;4164790;28;20474;-52
2022/11/24 05:30:18;;;;;;;31.90;23.73;;;;;;;8.51;70.18;93734.00;4146208;28;20100;-55
2022/11/24 05:32:20;;;;;;;31.20;23.33;;;;;;;8.51;70.33;93739.22;4146264;28;20058;-51
2022/11/24 05:34:21;;;;;;;33.13;23.33;;;;;;;8.60;70.61;93745.22;4146176;28;20413;-51
2022/11/24 05:38:43;;;;;;;21.67;14.57;;;;;;;8.81;70.21;93748.06;4155068;28;20838;-55
2022/11/24 05:40:45;;;;;;;22.67;15.57;;;;;;;8.88;70.13;93748.19;4151747;28;20053;-51
2022/11/24 05:42:46;;;;;;;25.75;16.38;;;;;;;8.95;69.33;93751.75;4170791;28;20500;-54
2022/11/24 05:44:49;;;;;;;24.13;15.57;;;;;;;8.99;69.79;93752.19;4165116;28;20092;-55
2022/11/24 05:46:50;;;;;;;20.40;14.43;;;;;;;9.07;69.53;93754.75;4172610;28;20076;-49
2022/11/24 05:48:52;;;;;;;19.45;14.05;;;;;;;9.10;68.90;93753.59;4164105;28;20042;-50
2022/11/24 05:50:55;;;;;;;28.27;14.68;;;;;;;9.13;69.33;93759.31;4168788;28;20072;-51
2022/11/24 05:53:02;;;;;;;20.20;13.95;;;;;;;9.13;69.11;93753.28;4157095;28;20133;-49
2022/11/24 05:55:07;;;;;;;23.10;13.63;;;;;;;9.21;68.80;93761.06;4156072;28;20099;-55
2022/11/24 05:57:09;;;;;;;22.08;13.70;;;;;;;9.24;68.47;93758.09;4149552;28;20058;-52
2022/11/24 05:59:10;;;;;;;20.65;12.82;;;;;;;9.32;68.24;93759.84;4145095;28;20104;-58
2022/11/24 06:01:12;;;;;;;22.10;12.15;;;;;;;9.31;68.26;93760.81;4153128;28;20057;-54
2022/11/24 06:03:14;;;;;;;23.60;12.25;;;;;;;9.32;68.29;93757.22;4172318;28;20478;-54
2022/11/24 06:05:16;;;;;;;22.38;12.18;;;;;;;9.37;67.62;93758.31;4151374;28;20050;-56
2022/11/24 06:07:18;;;;;;;24.58;12.82;;;;;;;9.39;68.18;93766.78;4165424;28;20044;-57
2022/11/24 06:09:20;;;;;;;19.40;13.52;;;;;;;9.42;68.04;93766.47;4177926;28;20574;-52
2022/11/24 06:11:21;;;;;;;22.08;13.65;;;;;;;9.47;67.92;93765.94;4158526;28;20050;-51
2022/11/24 06:13:23;;;;;;;25.67;14.25;;;;;;;9.47;67.77;93770.34;4172777;28;20130;-53
2022/11/24 06:15:25;;;;;;;23.08;13.85;;;;;;;9.41;68.18;93771.84;4178478;28;20053;-55
2022/11/24 06:17:27;;;;;;;27.67;13.80;;;;;;;9.39;68.45;93774.63;4178557;28;20076;-57
2022/11/24 06:19:28;;;;;;;23.10;13.52;;;;;;;9.36;68.43;93772.38;4178209;28;20053;-52
2022/11/24 06:21:31;;;;;;;20.83;13.85;;;;;;;9.29;68.30;93773.25;4175844;28;20144;-51
2022/11/24 06:23:32;;;;;;;25.95;14.43;;;;;;;9.25;68.66;93778.03;4166761;28;20620;-53
2022/11/24 06:25:34;;;;;;;24.58;14.35;;;;;;;9.13;68.78;93782.00;4169187;28;20456;-54
2022/11/24 06:27:36;;;;;;;24.60;14.30;;;;;;;9.11;69.18;93781.38;4167188;28;20073;-53
2022/11/24 06:29:38;;;;;;;22.67;14.05;;;;;;;9.13;68.85;93795.06;4148686;28;20060;-53
2022/11/24 06:31:39;;;;;;;22.23;13.13;;;;;;;8.94;69.27;93789.28;4158480;28;20494;-54
2022/11/24 06:33:41;;;;;;;25.13;14.77;;;;;;;8.96;69.58;93795.16;4144996;28;20037;-52
2022/11/24 06:35:43;;;;;;;24.80;14.50;;;;;;;8.95;69.70;93798.75;4162915;28;20257;-55
2022/11/24 06:37:44;;;;;;;21.75;14.05;;;;;;;9.04;69.91;93798.72;4165330;28;20108;-55
2022/11/24 06:39:47;;;;;;;24.45;14.30;;;;;;;9.05;68.88;93810.78;4160710;28;20049;-54
2022/11/24 06:41:49;;;;;;;29.38;15.73;;;;;;;9.00;69.43;93811.31;4149378;28;20054;-54
2022/11/24 06:43:51;;;;;;;23.50;14.88;;;;;;;8.83;70.32;93815.78;4176040;28;20099;-53
2022/11/24 06:45:53;;;;;;;27.52;15.02;;;;;;;8.88;69.85;93810.84;4177589;28;20498;-55
2022/11/24 06:47:55;;;;;;;27.33;15.13;;;;;;;8.83;69.72;93821.00;4171284;28;20129;-51
2022/11/24 06:49:56;;;;;;;29.85;14.25;;;;;;;8.71;70.68;93835.41;4175741;28;20057;-55
2022/11/24 06:51:58;;;;;;;26.58;14.85;;;;;;;8.65;70.58;93829.09;4167472;28;20046;-51
2022/11/24 06:54:00;;;;;;;29.65;15.05;;;;;;;8.58;71.21;93843.78;4174506;28;20048;-52
2022/11/24 06:56:03;;;;;;;28.45;16.58;;;;;;;8.61;70.71;93839.03;4177602;28;20507;-54
2022/11/24 06:58:05;;;;;;;27.47;17.47;;;;;;;8.50;70.75;93851.66;4176012;28;20052;-53
2022/11/24 07:00:07;;;;;;;28.80;18.48;;;;;;;8.43;71.36;93856.69;4176935;28;20235;-54
2022/11/24 07:02:09;;;;;;;34.28;21.10;;;;;;;8.17;72.34;93856.88;4176554;28;20059;-53
2022/11/24 07:04:11;;;;;;;41.80;22.35;;;;;;;8.21;72.59;93856.38;4154240;28;20124;-53
2022/11/24 07:06:14;;;;;;;37.05;21.13;;;;;;;8.26;72.73;93865.50;4169782;28;20080;-52
2022/11/24 07:08:15;;;;;;;29.75;18.38;;;;;;;8.01;72.65;93865.53;4176460;28;20064;-55
2022/11/24 07:10:18;;;;;;;29.30;17.63;;;;;;;8.03;72.17;93868.81;4175528;28;20062;-52
2022/11/24 07:12:20;;;;;;;32.60;16.67;;;;;;;8.16;71.95;93870.91;4157192;28;20052;-53
2022/11/24 07:14:22;;;;;;;23.35;15.48;;;;;;;8.18;71.70;93874.97;4175320;28;20065;-52
2022/11/24 07:16:24;;;;;;;22.52;13.05;;;;;;;8.12;72.10;93872.22;4176782;28;20060;-56
2022/11/24 07:18:26;;;;;;;22.10;12.55;;;;;;;8.02;70.83;93890.63;4163937;28;20442;-53
2022/11/24 07:20:28;;;;;;;29.38;13.20;;;;;;;7.99;71.72;93885.75;4177040;28;20072;-54
2022/11/24 07:22:29;;;;;;;23.65;12.88;;;;;;;8.10;72.05;93887.22;4163946;28;20068;-54
2022/11/24 07:24:31;;;;;;;18.80;12.27;;;;;;;8.06;72.18;93889.34;4150567;28;20060;-53
2022/11/24 07:26:36;;;;;;;19.02;11.27;;;;;;;8.11;71.61;93886.22;4177187;28;20045;-55
2022/11/24 07:28:38;;;;;;;21.80;11.68;;;;;;;7.95;71.45;93895.69;4157731;28;20080;-53
2022/11/24 07:30:39;;;;;;;19.35;11.27;;;;;;;7.50;72.91;93896.13;4167413;28;20523;-55
2022/11/24 07:32:41;;;;;;;26.73;12.27;;;;;;;7.50;73.62;93891.72;4167087;28;20061;-56
2022/11/24 07:34:42;;;;;;;18.25;12.38;;;;;;;7.58;73.99;93901.38;4147778;28;20130;-51
2022/11/24 07:36:44;;;;;;;22.15;12.90;;;;;;;7.48;73.99;93903.28;4160869;28;20065;-54
2022/11/24 07:38:46;;;;;;;25.35;15.00;;;;;;;7.17;74.97;93906.47;4152437;28;20132;-55
2022/11/24 07:40:47;;;;;;;20.55;15.10;;;;;;;7.17;74.94;93909.88;4151799;28;20049;-56
2022/11/24 07:42:49;;;;;;;22.30;15.52;;;;;;;7.12;75.98;93914.75;4151367;28;20046;-55
2022/11/24 07:44:51;;;;;;;23.63;15.85;;;;;;;7.28;75.64;93916.59;4167518;28;20107;-55
2022/11/24 07:46:52;;;;;;;21.05;15.30;;;;;;;7.42;74.80;93915.19;4176828;28;20044;-55
2022/11/24 07:48:54;;;;;;;24.90;15.52;;;;;;;7.24;75.98;93907.47;4176966;28;20127;-55
2022/11/24 07:51:00;;;;;;;17.90;12.95;;;;;;;7.07;76.48;93921.41;4174806;28;20063;-54
2022/11/24 07:53:02;;;;;;;20.17;12.77;;;;;;;6.86;77.11;93920.03;4157331;28;20681;-54
2022/11/24 07:55:07;;;;;;;17.02;12.18;;;;;;;6.80;77.73;93936.25;4153706;28;20499;-54
2022/11/24 07:57:09;;;;;;;19.38;13.23;;;;;;;6.63;78.57;93950.97;4165831;28;20046;-55
2022/11/24 07:59:11;;;;;;;21.05;13.32;;;;;;;6.65;78.38;93945.63;4167755;28;20080;-55
2022/11/24 08:01:15;;;;;;;22.33;11.77;;;;;;;6.54;77.85;93952.69;4159632;28;20049;-57
2022/11/24 08:03:16;;;;;;;18.05;12.43;;;;;;;6.51;78.27;93944.38;4165994;28;20469;-57
2022/11/24 08:05:18;;;;;;;17.55;12.07;;;;;;;6.48;78.75;93950.69;4166811;28;20057;-57
2022/11/24 08:07:20;;;;;;;17.10;11.50;;;;;;;6.67;77.89;93961.91;4164420;28;20077;-51
2022/11/24 08:09:22;;;;;;;19.35;11.90;;;;;;;6.74;76.93;93957.69;4165658;28;20821;-54
2022/11/24 08:11:24;;;;;;;19.27;11.30;;;;;;;6.76;77.10;93946.16;4153657;28;20045;-56
2022/11/24 08:13:25;;;;;;;17.08;11.02;;;;;;;6.90;76.58;93955.16;4157294;28;20124;-54
2022/11/24 08:15:27;;;;;;;16.27;11.82;;;;;;;6.77;76.54;93967.78;4161172;28;20143;-56
2022/11/24 08:17:29;;;;;;;14.43;11.05;;;;;;;6.87;76.15;93960.69;4165740;28;20049;-54
2022/11/24 08:19:31;;;;;;;25.63;11.55;;;;;;;6.88;75.78;93964.09;4165697;28;20061;-55
2022/11/24 08:21:33;;;;;;;12.98;10.07;;;;;;;7.04;75.47;93973.81;4160349;28;20053;-53
2022/11/24 08:23:34;;;;;;;14.57;10.75;;;;;;;7.06;74.99;93966.66;4160152;28;20045;-55
2022/11/24 08:25:36;;;;;;;13.05;9.70;;;;;;;7.06;74.28;93974.47;4165644;28;20387;-59
2022/11/24 08:27:39;;;;;;;12.90;9.65;;;;;;;7.12;73.99;93976.44;4165247;28;20091;-53
2022/11/24 08:29:41;;;;;;;12.77;9.93;;;;;;;7.16;73.85;93967.34;4147337;28;20141;-57
2022/11/24 08:31:43;;;;;;;16.23;9.75;;;;;;;7.19;73.72;93977.47;4164391;28;20065;-54
2022/11/24 08:33:45;;;;;;;14.75;10.70;;;;;;;7.14;73.56;93979.69;4174353;28;20482;-51
2022/11/24 08:35:47;;;;;;;14.63;9.68;;;;;;;7.03;73.70;93972.97;4172809;28;20053;-50
2022/11/24 08:37:48;;;;;;;14.25;11.15;;;;;;;7.15;73.85;93976.94;4170862;28;20061;-53
2022/11/24 08:39:51;;;;;;;12.02;8.07;;;;;;;7.19;73.38;93977.47;4178337;28;20052;-52
2022/11/24 08:41:52;;;;;;;12.98;8.23;;;;;;;7.27;72.75;93985.31;4160244;28;20053;-57
2022/11/24 08:43:54;;;;;;;9.80;7.22;;;;;;;7.26;72.59;93982.84;4155113;28;20130;-51
2022/11/24 08:46:00;;;;;;;11.32;7.63;;;;;;;7.14;72.74;93998.78;4179606;28;20492;-56
2022/11/24 08:48:02;;;;;;;10.15;7.10;;;;;;;7.07;72.72;93999.53;4179834;28;20057;-52
2022/11/24 08:50:05;;;;;;;14.93;8.10;;;;;;;7.16;72.64;94002.03;4177150;28;20422;-55
2022/11/24 08:52:06;;;;;;;9.45;6.43;;;;;;;6.98;73.05;94006.47;4168341;28;20058;-53
2022/11/24 08:54:09;;;;;;;11.43;6.55;;;;;;;6.92;72.74;94001.88;4162681;28;20103;-54
2022/11/24 08:56:11;;;;;;;11.57;6.10;;;;;;;7.00;72.04;94017.56;4167312;28;20056;-51
2022/11/24 08:58:13;;;;;;;8.43;5.35;;;;;;;7.13;71.71;94004.94;4178266;28;20080;-52
2022/11/24 09:00:21;;;;;;;8.18;4.90;;;;;;;7.17;71.43;94014.06;4179314;28;20052;-56
2022/11/24 09:02:22;;;;;;;7.28;4.47;;;;;;;7.13;71.82;94019.75;4179575;28;20170;-51
2022/11/24 09:04:24;;;;;;;9.30;4.40;;;;;;;7.15;71.30;94029.03;4179609;28;20124;-55
2022/11/24 09:06:29;;;;;;;5.45;4.20;;;;;;;7.08;71.44;94020.22;4179737;28;20053;-53
2022/11/24 09:08:32;;;;;;;9.13;4.68;;;;;;;7.15;71.12;94026.44;4177866;28;20053;-55
2022/11/24 09:10:34;;;;;;;7.43;4.32;;;;;;;7.25;70.93;94017.69;4176558;28;20434;-51
2022/11/24 09:12:36;;;;;;;6.07;3.75;;;;;;;7.18;70.61;94033.13;4171182;28;20094;-52
2022/11/24 09:14:37;;;;;;;4.97;3.58;;;;;;;7.29;70.10;94025.06;4176946;28;20405;-54
2022/11/24 09:16:39;;;;;;;7.03;4.60;;;;;;;7.45;69.97;94028.72;4178533;28;20485;-57
2022/11/24 09:18:41;;;;;;;8.35;3.85;;;;;;;7.57;69.25;94025.66;4177867;28;20113;-58
2022/11/24 09:20:43;;;;;;;6.18;3.63;;;;;;;7.68;68.81;94031.53;4170323;28;20111;-55
2022/11/24 09:22:46;;;;;;;7.57;3.50;;;;;;;7.68;68.06;94027.16;4173482;28;20137;-57
2022/11/24 09:24:48;;;;;;;5.72;3.20;;;;;;;7.69;67.46;94023.56;4175317;28;20093;-57
2022/11/24 09:26:49;;;;;;;6.47;3.50;;;;;;;7.83;67.83;94026.53;4175535;28;20087;-56
2022/11/24 09:28:53;;;;;;;6.13;2.72;;;;;;;7.84;67.55;94025.59;4160353;28;20064;-54
2022/11/24 09:30:55;;;;;;;;;;;;;;;7.78;67.00;94027.84;4153512;28;20497;-53
2022/11/24 09:32:56;;;;;;;7.00;2.75;;;;;;;7.69;67.31;94030.59;4157193;28;19944;-55
2022/11/24 09:34:58;;;;;;;3.67;2.28;;;;;;;7.58;66.73;94021.25;4160732;28;20052;-53
2022/11/24 09:37:00;;;;;;;3.15;2.20;;;;;;;7.58;66.48;94031.69;4146888;28;20050;-56
2022/11/24 09:39:02;;;;;;;4.97;1.70;;;;;;;7.45;66.58;94026.91;4155439;28;20412;-52
2022/11/24 09:41:13;;;;;;;3.38;1.50;;;;;;;7.33;66.40;94031.56;4154698;28;20049;-55